This is the latest recevied weather packets stored in our database for station/object SP1JT-10. If no packets are shown the sender has not sent any weather packets the latest 10 day(s).
| Time | Temp. | Humidity | Pressure | Rain* | Wind** | Luminosity | Snow |
|---|---|---|---|---|---|---|---|
| 1777963154 | 9.44° C | 92% | 1013.1 hPa | - | - | - | - |
| 1777962553 | 9.44° C | 88% | 1012.9 hPa | - | - | - | - |
| 1777960573 | 9.44° C | 90% | 1012.5 hPa | - | - | - | - |
| 1777959733 | 9.44° C | 93% | 1012.6 hPa | - | - | - | - |
| 1777959133 | 8.89° C | 95% | 1012.6 hPa | - | - | - | - |
| 1777955355 | 7.78° C | 97% | 1012.7 hPa | - | - | - | - |
| 1777953553 | 7.22° C | 96% | 1012.8 hPa | - | - | - | - |
| 1777951153 | 6.67° C | 97% | 1012.9 hPa | - | - | - | - |
| 1777934353 | 10° C | 81% | 1014 hPa | - | - | - | - |
| 1777931954 | 10.56° C | 78% | 1014.2 hPa | - | - | - | - |
| 1777930755 | 10.56° C | 76% | 1014.3 hPa | - | - | - | - |
| 1777930154 | 11.11° C | 76% | 1014.4 hPa | - | - | - | - |
| 1777925953 | 12.22° C | 70% | 1014.5 hPa | - | - | - | - |
| 1777924575 | 12.78° C | 68% | 1014.5 hPa | - | - | - | - |
| 1777918754 | 15° C | 61% | 1013.7 hPa | - | - | - | - |
| 1777917554 | 16.11° C | 59% | 1013.6 hPa | - | - | - | - |
| 1777917134 | 16.11° C | 59% | 1013.6 hPa | - | - | - | - |
| 1777915876 | 17.22° C | 56% | 1013.2 hPa | - | - | - | - |
| 1777911558 | 20° C | 52% | 1012.9 hPa | - | - | - | - |
| 1777910954 | 18.89° C | 53% | 1012.9 hPa | - | - | - | - |
| 1777904953 | 21.11° C | 44% | 1013 hPa | - | - | - | - |
| 1777897754 | 18.33° C | 52% | 1013 hPa | - | - | - | - |
| 1777893554 | 17.78° C | 53% | 1013.3 hPa | - | - | - | - |
| 1777892954 | 17.22° C | 54% | 1013.2 hPa | - | - | - | - |
| 1777892354 | 17.22° C | 54% | 1013.2 hPa | - | - | - | - |
* Rain since midnight (hover to see other rain measurements)
** Current wind speed in m/s (hover to see current wind gust speed)